OMD4FS EGHI-EKVG
Flight info
| Callsign | OMD4FS |
|---|---|
| Flight time | N/A |
| Altitude | 36000 |
| Route | CPT DCT DTY UY250 AKUPA T420 TNT UN57 POL DCT DCS DCT GOW DCT STN DCT MATIK DCT VG |
| Aircraft | CRJX/M-SDFGIRWY/S |
Departure
| Time | 2026-05-06 20:00 |
|---|---|
| Airport | Southampton Airport (EGHI) |
Arrival
| Time | N/A |
|---|---|
| Airport | Vágar Airport (EKVG) |
| Time | Latitude | Longitude | Altitude | Speed | Heading |
|---|---|---|---|---|---|
| 2026-05-06 19:23 | 50.95394 | -1.35794 | 47 ft | 0 kts | 289° |
| 2026-05-06 19:46 | 50.95390 | -1.35780 | 44 ft | 3 kts | 289° |
| 2026-05-06 19:46 | 50.95389 | -1.35745 | 43 ft | 4 kts | 231° |
| 2026-05-06 19:46 | 50.95409 | -1.35723 | 43 ft | 3 kts | 200° |
| 2026-05-06 19:46 | 50.95413 | -1.35720 | 43 ft | 1 kts | 200° |
| 2026-05-06 19:47 | 50.95413 | -1.35721 | 43 ft | 0 kts | 200° |
| 2026-05-06 19:54 | 50.95408 | -1.35723 | 48 ft | 0 kts | 199° |
| 2026-05-06 19:54 | 50.95367 | -1.35745 | 46 ft | 10 kts | 199° |
| 2026-05-06 19:55 | 50.95303 | -1.35782 | 48 ft | 10 kts | 200° |
| 2026-05-06 19:55 | 50.95237 | -1.35817 | 47 ft | 11 kts | 198° |
| 2026-05-06 19:55 | 50.95161 | -1.35857 | 45 ft | 12 kts | 198° |
| 2026-05-06 19:55 | 50.95084 | -1.35899 | 44 ft | 11 kts | 203° |
| 2026-05-06 19:56 | 50.95015 | -1.35941 | 44 ft | 11 kts | 201° |
| 2026-05-06 19:56 | 50.94941 | -1.35985 | 43 ft | 12 kts | 200° |
| 2026-05-06 19:56 | 50.94862 | -1.36030 | 44 ft | 12 kts | 199° |
| 2026-05-06 19:56 | 50.94765 | -1.36081 | 42 ft | 17 kts | 198° |
| 2026-05-06 19:57 | 50.94659 | -1.36136 | 38 ft | 12 kts | 193° |
| 2026-05-06 19:57 | 50.94609 | -1.36118 | 38 ft | 4 kts | 149° |
| 2026-05-06 19:57 | 50.94600 | -1.36107 | 38 ft | 0 kts | 139° |
| 2026-05-06 19:57 | 50.94591 | -1.36088 | 38 ft | 5 kts | 117° |
| 2026-05-06 19:58 | 50.94569 | -1.36002 | 37 ft | 14 kts | 109° |
| 2026-05-06 19:58 | 50.94489 | -1.35975 | 36 ft | 13 kts | 198° |
| 2026-05-06 19:58 | 50.94384 | -1.36036 | 34 ft | 18 kts | 199° |
| 2026-05-06 19:58 | 50.94317 | -1.36034 | 35 ft | 2 kts | 178° |
| 2026-05-06 19:59 | 50.94304 | -1.36049 | 36 ft | 4 kts | 244° |
| 2026-05-06 19:59 | 50.94321 | -1.36083 | 35 ft | 4 kts | 351° |
| 2026-05-06 19:59 | 50.94376 | -1.36046 | 34 ft | 30 kts | 24° |
| 2026-05-06 19:59 | 50.94802 | -1.35805 | 42 ft | 99 kts | 19° |
| 2026-05-06 20:00 | 50.95314 | -1.35518 | 46 ft | 135 kts | 20° |
| 2026-05-06 20:00 | 50.96320 | -1.34924 | 249 ft | 166 kts | 22° |
| 2026-05-06 20:00 | 50.97421 | -1.34296 | 940 ft | 170 kts | 17° |
| 2026-05-06 20:00 | 50.98556 | -1.33917 | 1799 ft | 168 kts | 10° |
| 2026-05-06 20:01 | 50.99806 | -1.33580 | 1988 ft | 200 kts | 10° |
| 2026-05-06 20:01 | 51.01192 | -1.33212 | 2770 ft | 195 kts | 10° |
| 2026-05-06 20:01 | 51.02431 | -1.32853 | 3939 ft | 172 kts | 11° |
| 2026-05-06 20:01 | 51.03702 | -1.32411 | 4281 ft | 210 kts | 12° |
| 2026-05-06 20:02 | 51.05255 | -1.31760 | 4551 ft | 240 kts | 15° |
| 2026-05-06 20:02 | 51.06743 | -1.30968 | 5929 ft | 207 kts | 19° |
| 2026-05-06 20:02 | 51.07970 | -1.30100 | 7071 ft | 191 kts | 25° |
| 2026-05-06 20:02 | 51.09211 | -1.28993 | 7237 ft | 222 kts | 29° |
| 2026-05-06 20:03 | 51.10601 | -1.27536 | 7346 ft | 249 kts | 34° |
| 2026-05-06 20:03 | 51.11914 | -1.25892 | 8447 ft | 225 kts | 39° |
| 2026-05-06 20:03 | 51.12980 | -1.24244 | 9610 ft | 207 kts | 45° |
| 2026-05-06 20:03 | 51.13941 | -1.22410 | 9861 ft | 229 kts | 51° |
| 2026-05-06 20:04 | 51.14915 | -1.20161 | 9825 ft | 260 kts | 56° |
| 2026-05-06 20:04 | 51.15798 | -1.17684 | 10532 ft | 252 kts | 61° |
| 2026-05-06 20:04 | 51.16467 | -1.15258 | 11690 ft | 229 kts | 68° |
| 2026-05-06 20:04 | 51.16946 | -1.12830 | 12242 ft | 235 kts | 73° |
| 2026-05-06 20:05 | 51.17309 | -1.10123 | 12184 ft | 265 kts | 78° |
| 2026-05-06 20:05 | 51.17551 | -1.07126 | 12563 ft | 273 kts | 84° |
| 2026-05-06 20:05 | 51.17633 | -1.04222 | 13684 ft | 250 kts | 84° |
| 2026-05-06 20:05 | 51.18140 | -1.01580 | 14007 ft | 260 kts | 58° |
| 2026-05-06 20:06 | 51.19312 | -0.99232 | 13836 ft | 287 kts | 40° |
| 2026-05-06 20:06 | 51.20938 | -0.97425 | 14511 ft | 274 kts | 25° |
| 2026-05-06 20:06 | 51.22600 | -0.96388 | 15790 ft | 240 kts | 13° |
| 2026-05-06 20:06 | 51.24213 | -0.95883 | 16423 ft | 238 kts | 5° |
| 2026-05-06 20:07 | 51.25936 | -0.95671 | 16206 ft | 268 kts | 0° |